Latest Weather Observations for Hughenden

IDQ60801

Issued at 9:35 pm EST Wednesday 17 September 2014 (issued every 30 minutes, with the page automatically refreshed every 10 minutes)

About weather observations | Map of weather stations | Latest weather observations for QLD | Other Formats
Station Details ID: 030022 Name: HUGHENDEN AIRPORT Lat: -20.82 Lon: 144.23 Height: 316.4 m
Data from the previous 72 hours. | See also: Recent months at Hughenden
Date/Time
EST
Temp
°C
App
Temp
°C
Dew
Point
Rel
Hum
%
Delta-T
°C
Wind Press
QNH
hPa
Press
MSL
hPa
Rain
since 9 am
mm
Dir
 
Spd
km/h
Gust
km/h
Spd
kts
Gust
kts
17/09:30pm 23.0 16.9 -7.9 12 12.2 S 17 20 9 11 1017.9 1016.3 0.0
17/09:00pm 23.2 17.4 -8.9 11 12.5 S 15 19 8 10 1017.7 1016.1 0.0
17/08:30pm 24.8 18.7 -7.6 11 13.1 S 17 22 9 12 1017.3 1015.7 0.0
17/08:00pm 24.4 18.6 -9.1 10 13.1 S 15 19 8 10 1016.9 1015.3 0.0
17/07:30pm 25.3 19.8 -9.8 9 13.7 S 13 15 7 8 1016.4 1014.9 0.0
17/07:00pm 27.0 21.6 -8.5 9 14.4 S 13 17 7 9 1016.0 1014.5 0.0
17/06:30pm 28.4 22.6 -9.0 8 15.3 S 15 20 8 11 1015.6 1014.1 0.0
17/06:00pm 30.2 24.7 -9.4 7 16.3 S 13 19 7 10 1015.2 1013.6 0.0
17/05:30pm 31.3 24.6 -8.6 7 16.9 S 20 28 11 15 1014.9 1013.3 0.0
17/05:00pm 32.0 26.2 -8.1 7 17.2 SSW 15 24 8 13 1014.5 1012.9 0.0
17/04:30pm 32.3 25.5 -9.8 6 17.6 S 20 32 11 17 1014.4 1012.8 0.0
17/04:00pm 32.6 25.2 -7.6 7 17.5 SSW 24 37 13 20 1014.2 1012.6 0.0
17/03:30pm 32.3 25.5 -9.8 6 17.6 SSW 20 26 11 14 1014.3 1012.7 0.0
17/03:00pm 31.8 25.7 -8.2 7 17.1 SSE 17 28 9 15 1014.5 1012.9 0.0
17/02:30pm 31.7 27.1 -8.3 7 17.0 SSW 9 17 5 9 1014.6 1013.0 0.0
17/02:00pm 32.3 25.6 -7.8 7 17.3 E 20 24 11 13 1014.9 1013.3 0.0
17/01:30pm 31.6 27.1 -6.6 8 16.7 WSW 9 19 5 10 1015.2 1013.6 0.0
17/01:00pm 32.2 24.9 -6.2 8 17.0 SSE 24 41 13 22 1015.7 1014.2 0.0
17/12:30pm 31.4 26.3 -5.2 9 16.4 SSE 13 19 7 10 1016.3 1014.8 0.0
17/12:00pm 31.1 26.0 -5.5 9 16.2 SSW 13 26 7 14 1016.9 1015.3 0.0
17/11:30am 30.3 25.2 -2.2 12 15.2 SE 15 20 8 11 1017.2 1015.6 0.0
17/11:00am 29.7 25.0 -1.6 13 14.7 E 13 20 7 11 1017.7 1016.1 0.0
17/10:30am 29.7 25.2 -0.6 14 14.5 SE 13 20 7 11 1018.1 1016.6 0.0
17/10:00am 27.7 24.3 2.0 19 12.7 NNE 9 15 5 8 1018.2 1016.7 0.0
17/09:30am 26.9 24.7 3.4 22 11.8 NNE 4 9 2 5 1018.5 1017.0 0.0
17/09:00am 25.2 22.7 3.8 25 10.7 E 6 9 3 5 1018.5 1017.0 0.0
17/08:30am 23.4 19.7 4.4 29 9.5 NNE 13 19 7 10 1018.0 1016.4 0.0
17/08:00am 21.4 16.5 4.0 32 8.5 NE 19 24 10 13 1017.7 1016.1 0.0
17/07:30am 20.0 15.4 3.7 34 7.9 NE 17 24 9 13 1017.5 1015.9 0.0
17/07:00am 19.1 14.9 3.7 36 7.4 NE 15 20 8 11 1017.3 1015.7 0.0
17/06:30am 17.0 12.7 1.0 34 7.2 E 13 19 7 10 1017.0 1015.4 0.0
17/06:00am 17.6 13.3 1.2 33 7.4 ENE 13 19 7 10 1016.5 1015.0 0.0
17/05:30am 18.3 13.3 1.3 32 7.7 NE 17 20 9 11 1016.1 1014.6 0.0
17/05:00am 18.3 13.3 1.3 32 7.7 NE 17 19 9 10 1015.8 1014.3 0.0
17/04:30am 17.9 14.7 0.6 31 7.7 ENE 7 9 4 5 1015.7 1014.2 0.0
17/04:00am 17.6 14.5 0.3 31 7.7 E 6 11 3 6 1015.5 1014.0 0.0
17/03:30am 19.3 16.0 0.4 28 8.5 SSE 7 11 4 6 1015.4 1013.9 0.0
17/03:00am 19.8 15.0 0.3 27 8.8 S 15 20 8 11 1015.4 1013.9 0.0
17/02:30am 18.2 14.5 -0.1 29 8.1 ENE 9 11 5 6 1014.7 1013.1 0.0
17/02:00am 17.9 15.0 -0.8 28 8.1 NE 4 6 2 3 1014.7 1013.1 0.0
17/01:30am 20.0 16.3 -0.1 26 9.0 ENE 9 11 5 6 1014.8 1013.2 0.0
17/01:00am 19.8 15.3 -0.2 26 8.9 ENE 13 15 7 8 1015.1 1013.5 0.0
17/12:30am 20.2 16.1 -0.4 25 9.2 NE 11 15 6 8 1015.0 1013.4 0.0
17/12:00am 20.3 15.8 -0.3 25 9.2 NE 13 15 7 8 1015.2 1013.6 0.0
 
Date/Time
EST
Temp
°C
App
Temp
°C
Dew
Point
Rel
Hum
%
Delta-T
°C
Wind Press
QNH
hPa
Press
MSL
hPa
Rain
since 9 am
mm
Dir
 
Spd
km/h
Gust
km/h
Spd
kts
Gust
kts
16/11:30pm 20.4 15.9 -0.3 25 9.3 NNE 13 15 7 8 1015.3 1013.8 0.0
16/11:00pm 20.1 16.4 0.0 26 9.0 NE 9 13 5 7 1015.5 1014.0 0.0
16/10:30pm 19.4 15.7 -0.1 27 8.7 SSE 9 11 5 6 1015.7 1014.2 0.0
16/10:00pm 19.3 15.8 -1.7 24 9.1 S 7 11 4 6 1015.7 1014.2 0.0
16/09:30pm 21.7 17.1 -0.9 22 10.1 ESE 13 15 7 8 1015.7 1014.2 0.0
16/09:00pm 22.3 17.7 -1.1 21 10.5 ESE 13 15 7 8 1015.6 1014.1 0.0
16/08:30pm 22.6 18.4 -0.8 21 10.6 SE 11 15 6 8 1015.4 1013.9 0.0
16/08:00pm 23.5 19.7 -0.7 20 11.0 ESE 9 11 5 6 1015.1 1013.5 0.0
16/07:30pm 25.0 20.8 -0.9 18 11.9 SE 11 13 6 7 1014.8 1013.2 0.0
16/07:00pm 26.0 21.8 -0.9 17 12.5 SE 11 13 6 7 1014.5 1012.9 0.0
16/06:30pm 27.4 23.5 -1.5 15 13.4 SE 9 11 5 6 1014.3 1012.7 0.0
16/06:00pm 29.3 25.1 -0.9 14 14.3 ESE 11 20 6 11 1013.9 1012.3 0.0
16/05:30pm 29.3 25.1 -0.9 14 14.3 SSE 11 15 6 8 1013.7 1012.1 0.0
16/05:00pm 29.9 23.9 -1.5 13 14.8 ESE 20 28 11 15 1013.3 1011.8 0.0
16/04:30pm 29.8 25.7 -0.5 14 14.5 SSE 11 20 6 11 1013.2 1011.7 0.0
16/04:00pm 30.8 25.6 0.2 14 15.0 SE 17 22 9 12 1013.1 1011.6 0.0
16/03:30pm 31.6 26.0 -0.1 13 15.5 SE 19 26 10 14 1013.1 1011.6 0.0
16/03:00pm 31.0 25.5 0.4 14 15.0 SE 19 35 10 19 1013.5 1011.9 0.0
16/02:30pm 30.4 24.6 -0.1 14 14.8 SE 20 37 11 20 1013.8 1012.2 0.0
16/02:00pm 31.3 25.2 0.6 14 15.2 SSE 22 30 12 16 1014.4 1012.8 0.0
16/01:30pm 31.2 26.1 0.6 14 15.1 SE 17 28 9 15 1014.8 1013.2 0.0
16/01:00pm 30.6 23.7 0.1 14 14.9 SE 26 41 14 22 1015.3 1013.8 0.0
16/12:57pm 30.6 22.6 0.1 14 14.9 SSE 32 41 17 22 1015.3 1013.8 0.0
16/12:30pm 30.5 26.0 1.9 16 14.4 SSE 15 22 8 12 1015.6 1014.1 0.0
16/12:00pm 30.2 25.1 0.7 15 14.5 E 17 35 9 19 1015.9 1014.4 0.0
16/11:30am 29.7 24.4 2.1 17 13.8 SE 19 30 10 16 1016.5 1015.0 0.0
16/11:00am 28.7 24.3 2.8 19 13.0 E 15 26 8 14 1017.0 1015.4 0.0
16/10:30am 28.6 24.9 4.2 21 12.6 E 13 26 7 14 1017.3 1015.7 0.0
16/10:00am 27.3 22.8 4.4 23 11.8 NE 17 24 9 13 1017.6 1016.0 0.0
16/09:30am 26.2 22.6 8.2 32 9.8 NNE 17 24 9 13 1017.7 1016.1 0.0
16/09:00am 24.3 20.6 9.5 39 8.2 NNE 19 26 10 14 1017.7 1016.1 0.0
16/08:30am 22.3 19.0 10.8 48 6.4 NNE 19 26 10 14 1017.6 1016.0 0.0
16/08:00am 20.2 17.3 11.1 56 5.1 NE 17 24 9 13 1017.6 1016.0 0.0
16/07:30am 18.6 16.0 10.7 60 4.3 NE 15 22 8 12 1017.3 1015.7 0.0
16/07:00am 17.8 15.2 10.7 63 3.9 NE 15 19 8 10 1016.9 1015.3 0.0
16/06:30am 14.7 12.6 6.8 59 3.9 E 7 11 4 6 1016.6 1015.1 0.0
16/06:00am 17.3 15.1 10.7 65 3.6 ENE 13 17 7 9 1016.3 1014.8 0.0
16/05:30am 16.1 14.0 8.1 59 4.1 E 9 11 5 6 1016.1 1014.6 0.0
16/05:00am 18.0 15.9 9.6 58 4.5 E 11 17 6 9 1016.0 1014.5 0.0
16/04:30am 17.4 14.1 6.6 49 5.4 ENE 13 15 7 8 1015.7 1014.2 0.0
16/04:00am 15.0 11.2 1.9 41 5.9 ENE 11 15 6 8 1015.6 1014.1 0.0
16/03:30am 14.6 11.2 -0.7 35 6.5 ESE 7 9 4 5 1015.5 1014.0 0.0
16/03:00am 15.6 12.4 -0.6 33 6.9 ESE 6 7 3 4 1015.7 1014.2 0.0
16/02:30am 16.2 12.9 -0.9 31 7.3 E 6 7 3 4 1015.8 1014.3 0.0
16/02:00am 16.7 12.6 -0.5 31 7.4 E 11 13 6 7 1015.8 1014.3 0.0
16/01:30am 17.2 13.1 -0.5 30 7.7 SE 11 13 6 7 1015.9 1014.4 0.0
16/01:00am 17.2 13.4 -1.0 29 7.8 E 9 13 5 7 1016.0 1014.5 0.0
16/12:30am 17.5 13.7 -0.7 29 7.9 SSE 9 13 5 7 1015.9 1014.4 0.0
16/12:00am 17.1 12.6 -0.6 30 7.7 S 13 15 7 8 1015.9 1014.4 0.0
 
Date/Time
EST
Temp
°C
App
Temp
°C
Dew
Point
Rel
Hum
%
Delta-T
°C
Wind Press
QNH
hPa
Press
MSL
hPa
Rain
since 9 am
mm
Dir
 
Spd
km/h
Gust
km/h
Spd
kts
Gust
kts
15/11:30pm 17.4 14.1 -1.3 28 8.0 SE 6 9 3 5 1016.0 1014.5 0.0
15/11:00pm 18.1 14.2 -1.7 26 8.4 SSE 9 9 5 5 1015.9 1014.4 0.0
15/10:30pm 19.7 15.8 -1.4 24 9.2 SE 9 11 5 6 1015.7 1014.2 0.0
15/10:00pm 20.4 15.8 -0.8 24 9.4 SE 13 15 7 8 1015.8 1014.3 0.0
15/09:30pm 20.9 16.6 -1.6 22 9.9 SE 11 13 6 7 1015.6 1014.1 0.0
15/09:00pm 21.4 17.2 -1.2 22 10.0 SSE 11 15 6 8 1015.3 1013.8 0.0
15/08:30pm 22.4 17.8 -1.0 21 10.5 SSE 13 15 7 8 1015.1 1013.5 0.0
15/08:00pm 23.2 18.6 -1.0 20 10.9 SSE 13 15 7 8 1014.7 1013.1 0.0
15/07:30pm 24.1 19.5 -0.9 19 11.4 SSE 13 15 7 8 1014.4 1012.8 0.0
15/07:00pm 25.2 20.6 -0.8 18 12.0 S 13 17 7 9 1014.2 1012.6 0.0
15/06:30pm 26.3 21.7 -0.7 17 12.6 SSE 13 15 7 8 1014.0 1012.4 0.0
15/06:00pm 27.8 23.4 0.5 17 13.1 SE 13 17 7 9 1013.8 1012.2 0.0
15/05:30pm 28.4 24.1 1.0 17 13.4 ESE 13 20 7 11 1013.7 1012.1 0.0
15/05:00pm 29.0 24.4 1.5 17 13.6 SE 15 20 8 11 1013.5 1011.9 0.0
15/04:30pm 29.0 24.5 -0.2 15 14.0 SE 13 20 7 11 1013.2 1011.7 0.0
15/04:00pm 28.4 25.1 0.2 16 13.6 NNE 7 9 4 5 1013.1 1011.6 0.0
15/03:30pm 29.2 24.5 0.8 16 13.9 SE 15 24 8 13 1013.3 1011.8 0.0
15/03:00pm 29.2 22.8 0.8 16 13.9 ESE 24 41 13 22 1013.7 1012.1 0.0
15/02:59pm 29.1 21.9 0.7 16 13.8 ESE 28 41 15 22 1013.7 1012.1 0.0
15/02:30pm 28.6 24.6 0.3 16 13.7 SE 11 19 6 10 1014.1 1012.5 0.0
15/02:00pm 28.7 23.5 0.4 16 13.7 SSE 17 28 9 15 1014.5 1012.9 0.0
15/01:30pm 28.3 24.4 0.9 17 13.3 SE 11 24 6 13 1014.7 1013.1 0.0
15/01:00pm 29.1 24.3 2.4 18 13.4 ENE 17 24 9 13 1015.2 1013.6 0.0
15/12:30pm 27.8 22.3 2.1 19 12.7 ESE 20 32 11 17 1015.8 1014.3 0.0
15/12:00pm 28.0 22.1 3.7 21 12.4 ESE 24 39 13 21 1016.4 1014.9 0.0
15/11:30am 27.4 22.1 3.2 21 12.2 E 20 28 11 15 1017.2 1015.6 0.0
15/11:00am 26.4 20.9 4.2 24 11.3 ENE 22 35 12 19 1017.6 1016.0 0.0
15/10:30am 26.2 21.0 5.7 27 10.7 ENE 22 33 12 18 1018.2 1016.7 0.0
15/10:00am 24.8 20.2 6.5 31 9.6 ENE 20 26 11 14 1018.5 1017.0 0.0
15/09:30am 24.2 19.3 6.9 33 9.1 ENE 22 32 12 17 1018.5 1017.0 0.0
15/09:00am 22.8 18.2 8.1 39 7.8 ENE 22 32 12 17 1018.5 1017.0 0.0
15/08:30am 21.3 17.6 10.2 49 6.1 NE 20 30 11 16 1018.5 1017.0 0.0
15/08:00am 20.1 16.7 10.5 54 5.3 ENE 19 26 10 14 1018.4 1016.9 0.0
15/07:30am 18.9 15.3 10.5 58 4.6 E 20 26 11 14 1018.0 1016.4 0.0
15/07:00am 17.7 14.5 9.8 60 4.2 E 17 20 9 11 1017.7 1016.1 0.0
15/06:30am 16.3 13.4 9.5 64 3.6 E 15 17 8 9 1017.5 1015.9 0.0
15/06:00am 15.8 13.2 9.2 65 3.5 E 13 17 7 9 1017.2 1015.6 0.0
15/05:30am 16.3 14.1 9.3 63 3.7 E 11 13 6 7 1017.0 1015.4 0.0
15/05:00am 16.6 14.4 9.3 62 3.8 E 11 13 6 7 1016.6 1015.1 0.0
15/04:30am 16.8 14.4 8.8 59 4.2 E 11 13 6 7 1016.4 1014.9 0.0
15/04:00am 17.7 15.7 8.6 55 4.8 E 9 15 5 8 1016.3 1014.8 0.0
15/03:30am 18.7 15.7 9.2 54 5.1 ENE 15 17 8 9 1016.1 1014.6 0.0
15/03:00am 19.2 16.2 9.4 53 5.3 E 15 20 8 11 1016.1 1014.6 0.0
15/02:30am 19.1 16.5 7.8 48 5.9 E 11 17 6 9 1016.0 1014.5 0.0
15/02:00am 18.0 14.5 3.5 38 6.9 E 11 15 6 8 1016.0 1014.5 0.0
15/01:30am 18.3 15.3 0.9 31 7.8 E 6 9 3 5 1016.0 1014.5 0.0
15/01:00am 20.0 16.1 1.0 28 8.7 NE 11 15 6 8 1015.9 1014.4 0.0
15/12:30am 20.0 15.9 -0.1 26 9.0 ENE 11 20 6 11 1016.2 1014.7 0.0
15/12:00am 20.8 16.4 0.6 26 9.2 ESE 13 17 7 9 1016.3 1014.8 0.0
 
Date/Time
EST
Temp
°C
App
Temp
°C
Dew
Point
Rel
Hum
%
Delta-T
°C
Wind Press
QNH
hPa
Press
MSL
hPa
Rain
since 9 am
mm
Dir
 
Spd
km/h
Gust
km/h
Spd
kts
Gust
kts
14/11:30pm 21.5 16.8 0.7 25 9.6 ESE 15 17 8 9 1016.2 1014.7 0.0
14/11:00pm 22.2 17.1 0.7 24 10.0 ESE 17 20 9 11 1016.2 1014.7 0.0
14/10:30pm 22.7 17.2 0.5 23 10.3 ESE 19 24 10 13 1016.1 1014.6 0.0
14/10:00pm 22.9 17.1 0.1 22 10.5 ESE 20 24 11 13 1016.0 1014.5 0.0

Other Formats:

Comma delimited format used in spreadsheet applications
http://www.bom.gov.au/fwo/IDQ60801/IDQ60801.94343.axf

JavaScript Object Notation format (JSON) in row-major order
http://www.bom.gov.au/fwo/IDQ60801/IDQ60801.94343.json